Time;durP1;ratioP1;P1;durP2;ratioP2;P2;SDS_P1;SDS_P2;PMS_P1;PMS_P2;Temp;Humidity;BMP_temperature;BMP_pressure;BME280_temperature;BME280_humidity;BME280_pressure;Samples;Min_cycle;Max_cycle;Signal;HPM_P1;HPM_P2
2021/07/12 00:00:23;;;;;;;0.88;0.88;;;11.70;99.90;;;;;;5017053;28;20739;-81
2021/07/12 00:02:49;;;;;;;0.60;0.60;;;11.70;99.90;;;;;;5023996;28;20327;-82
2021/07/12 00:05:16;;;;;;;0.52;0.52;;;11.70;99.90;;;;;;5018501;28;20568;-82
2021/07/12 00:07:42;;;;;;;0.60;0.60;;;11.70;99.90;;;;;;5000343;28;20201;-82
2021/07/12 00:10:10;;;;;;;0.60;0.60;;;11.70;99.90;;;;;;5021888;28;20212;-82
2021/07/12 00:12:36;;;;;;;1.05;0.95;;;11.60;99.90;;;;;;5001867;28;20289;-82
2021/07/12 00:15:05;;;;;;;0.60;0.60;;;11.70;99.90;;;;;;5017667;28;20728;-82
2021/07/12 00:17:30;;;;;;;0.50;0.50;;;11.60;99.90;;;;;;5014347;28;20198;-80
2021/07/12 00:19:56;;;;;;;7.53;1.48;;;11.70;99.90;;;;;;5021591;28;20224;-83
2021/07/12 00:22:22;;;;;;;0.50;0.50;;;11.60;99.90;;;;;;5019701;28;20251;-82
2021/07/12 00:24:48;;;;;;;1.13;1.02;;;11.60;99.90;;;;;;5016190;28;20204;-82
2021/07/12 00:27:13;;;;;;;0.80;0.80;;;11.60;99.90;;;;;;4988579;28;20202;-82
2021/07/12 00:29:39;;;;;;;0.68;0.68;;;11.60;99.90;;;;;;5022023;28;20194;-83
2021/07/12 00:32:05;;;;;;;0.82;0.82;;;11.50;99.90;;;;;;5019695;28;20228;-81
2021/07/12 00:34:31;;;;;;;0.80;0.80;;;11.50;99.90;;;;;;4999903;28;20195;-82
2021/07/12 00:36:57;;;;;;;0.85;0.85;;;11.50;99.90;;;;;;5004668;28;20757;-83
2021/07/12 00:39:23;;;;;;;0.60;0.60;;;11.50;99.90;;;;;;5023748;28;20213;-82
2021/07/12 00:41:49;;;;;;;1.10;1.10;;;11.40;99.90;;;;;;5020077;28;20728;-82
2021/07/12 00:44:15;;;;;;;0.70;0.70;;;11.40;99.90;;;;;;5017153;28;20263;-83
2021/07/12 00:46:41;;;;;;;0.85;0.85;;;11.50;99.90;;;;;;5020716;28;20201;-82
2021/07/12 00:49:06;;;;;;;1.42;1.17;;;11.50;99.90;;;;;;5015658;28;20203;-82
2021/07/12 00:51:32;;;;;;;0.73;0.68;;;11.40;99.90;;;;;;5013815;28;20238;-83
2021/07/12 00:53:58;;;;;;;0.70;0.70;;;11.50;99.90;;;;;;5017695;28;20755;-83
2021/07/12 00:56:24;;;;;;;0.50;0.50;;;11.40;99.90;;;;;;5014744;28;20223;-82
2021/07/12 00:58:50;;;;;;;1.05;1.05;;;11.40;99.90;;;;;;5015115;28;20213;-83
2021/07/12 01:01:16;;;;;;;0.70;0.70;;;11.30;99.90;;;;;;4996038;28;20253;-83
2021/07/12 01:03:42;;;;;;;1.17;1.08;;;11.30;99.90;;;;;;4998312;28;20190;-82
2021/07/12 01:06:08;;;;;;;0.82;0.82;;;11.20;99.90;;;;;;4999624;28;20202;-83
2021/07/12 01:08:34;;;;;;;0.60;0.60;;;11.20;99.90;;;;;;4996218;28;20202;-82
2021/07/12 01:11:02;;;;;;;0.50;0.50;;;11.20;99.90;;;;;;5003358;28;20199;-83
2021/07/12 01:13:50;;;;;;;2.85;1.30;;;11.20;99.90;;;;;;4998437;28;20260;-81
2021/07/12 01:16:27;;;;;;;1.00;1.00;;;11.20;99.90;;;;;;5005182;28;20238;-82
2021/07/12 01:19:50;;;;;;;2.92;1.45;;;11.20;99.90;;;;;;5002801;28;20739;-83
2021/07/12 01:22:34;;;;;;;0.75;0.75;;;11.10;99.90;;;;;;4964385;28;20215;-82
2021/07/12 01:25:18;;;;;;;0.90;0.90;;;11.20;99.90;;;;;;4999046;28;20221;-83
2021/07/12 01:27:59;;;;;;;0.80;0.80;;;11.20;99.90;;;;;;5000361;28;20219;-81
2021/07/12 01:31:02;;;;;;;0.80;0.80;;;11.20;99.90;;;;;;4998821;28;20203;-82
2021/07/12 01:33:35;;;;;;;1.40;1.23;;;11.20;99.90;;;;;;5006920;28;20676;-83
2021/07/12 01:36:03;;;;;;;0.73;0.73;;;11.10;99.90;;;;;;4999909;28;20716;-84
2021/07/12 01:38:53;;;;;;;0.82;0.82;;;11.10;99.90;;;;;;5008517;28;20207;-82
2021/07/12 01:41:34;;;;;;;0.70;0.70;;;11.10;99.90;;;;;;5008977;28;20214;-83
2021/07/12 01:44:25;;;;;;;1.27;1.17;;;11.10;99.90;;;;;;5006307;28;20209;-82
2021/07/12 01:47:09;;;;;;;0.60;0.60;;;11.10;99.90;;;;;;4986846;28;20676;-83
2021/07/12 01:50:00;;;;;;;0.50;0.50;;;11.10;99.90;;;;;;5000483;28;20222;-83
2021/07/12 01:52:29;;;;;;;0.60;0.60;;;11.10;99.90;;;;;;5000569;28;20866;-83
2021/07/12 01:55:06;;;;;;;0.60;0.60;;;11.00;99.90;;;;;;5003559;28;20291;-82
2021/07/12 01:57:35;;;;;;;2.58;1.08;;;11.00;99.90;;;;;;4998374;28;20308;-82
2021/07/12 02:00:11;;;;;;;0.70;0.70;;;11.00;99.90;;;;;;5004207;28;20220;-82
2021/07/12 02:02:42;;;;;;;0.70;0.70;;;11.10;99.90;;;;;;5002150;28;20194;-82
2021/07/12 02:05:11;;;;;;;2.25;1.33;;;11.10;99.90;;;;;;5001578;28;20349;-82
2021/07/12 02:07:37;;;;;;;0.65;0.65;;;11.10;99.90;;;;;;4991935;28;20214;-83
2021/07/12 02:10:06;;;;;;;0.60;0.60;;;11.10;99.90;;;;;;4999002;28;20689;-82
2021/07/12 02:12:33;;;;;;;0.80;0.80;;;11.10;99.90;;;;;;5000962;28;20767;-82
2021/07/12 02:15:01;;;;;;;0.88;0.88;;;11.00;99.90;;;;;;4987388;28;20205;-82
2021/07/12 02:17:28;;;;;;;1.20;1.10;;;11.00;99.90;;;;;;5002448;28;20296;-82
2021/07/12 02:19:58;;;;;;;0.60;0.60;;;10.90;99.90;;;;;;4994621;28;21122;-82
2021/07/12 02:22:26;;;;;;;0.50;0.50;;;10.90;99.90;;;;;;4987117;28;20328;-82
2021/07/12 02:24:54;;;;;;;0.60;0.60;;;10.80;99.90;;;;;;4985652;28;20196;-82
2021/07/12 02:27:22;;;;;;;0.82;0.82;;;10.80;99.90;;;;;;5003065;28;20677;-83
2021/07/12 02:29:49;;;;;;;0.60;0.60;;;10.80;99.90;;;;;;5002592;28;20481;-81
2021/07/12 02:32:18;;;;;;;0.60;0.60;;;10.80;99.90;;;;;;4998706;28;20641;-81
2021/07/12 02:34:44;;;;;;;0.80;0.80;;;10.80;99.90;;;;;;4986201;28;20256;-80
2021/07/12 02:37:11;;;;;;;0.65;0.65;;;10.80;99.90;;;;;;5004326;28;20806;-81
2021/07/12 02:39:39;;;;;;;0.70;0.70;;;10.90;99.90;;;;;;5004118;28;20625;-81
2021/07/12 02:42:06;;;;;;;0.60;0.60;;;10.90;99.90;;;;;;4985643;28;20717;-79
2021/07/12 02:44:33;;;;;;;1.63;1.10;;;10.90;99.90;;;;;;4986446;28;20198;-81
2021/07/12 02:46:59;;;;;;;0.60;0.60;;;10.90;99.90;;;;;;5005605;28;20305;-81
2021/07/12 02:49:28;;;;;;;0.60;0.60;;;10.90;99.90;;;;;;5004893;28;20614;-81
2021/07/12 02:51:59;;;;;;;0.70;0.70;;;10.90;99.90;;;;;;4986737;28;20233;-81
2021/07/12 02:54:30;;;;;;;1.25;1.15;;;11.00;99.90;;;;;;4988901;28;20195;-82
2021/07/12 02:56:56;;;;;;;0.70;0.70;;;11.00;99.90;;;;;;4999291;28;20226;-82
2021/07/12 02:59:23;;;;;;;0.60;0.60;;;11.10;99.90;;;;;;5002287;28;20547;-81
2021/07/12 03:01:48;;;;;;;1.10;0.93;;;11.10;99.90;;;;;;4996293;28;20908;-81
2021/07/12 03:04:14;;;;;;;0.60;0.60;;;11.20;99.90;;;;;;5001582;28;20297;-80
2021/07/12 03:06:43;;;;;;;0.80;0.80;;;11.30;99.90;;;;;;5004388;28;20244;-81
2021/07/12 03:09:13;;;;;;;4.35;1.08;;;11.30;99.90;;;;;;4985770;28;20701;-80
2021/07/12 03:11:46;;;;;;;23.60;1.95;;;11.40;99.90;;;;;;5002740;28;20207;-81
2021/07/12 03:14:20;;;;;;;0.70;0.70;;;11.40;99.90;;;;;;4987348;28;20210;-81
2021/07/12 03:16:48;;;;;;;0.80;0.80;;;11.50;99.90;;;;;;5003541;28;20288;-80
2021/07/12 03:19:21;;;;;;;0.60;0.60;;;11.50;99.90;;;;;;4999896;28;20213;-81
2021/07/12 03:21:49;;;;;;;0.70;0.70;;;11.60;99.90;;;;;;4999722;28;20194;-81
2021/07/12 03:24:18;;;;;;;0.55;0.55;;;11.60;99.90;;;;;;4979270;28;20651;-80
2021/07/12 03:26:46;;;;;;;0.70;0.70;;;11.70;99.90;;;;;;4995247;28;20670;-81
2021/07/12 03:29:13;;;;;;;0.70;0.70;;;11.80;99.90;;;;;;4987614;28;20202;-81
2021/07/12 03:31:40;;;;;;;0.60;0.60;;;11.90;99.90;;;;;;5000856;28;20202;-81
2021/07/12 03:34:09;;;;;;;1.08;0.98;;;12.00;99.90;;;;;;5005044;28;20202;-81
2021/07/12 03:36:37;;;;;;;0.60;0.60;;;12.00;99.90;;;;;;5001815;28;20693;-80
2021/07/12 03:39:04;;;;;;;0.65;0.65;;;12.10;99.90;;;;;;4990590;28;20685;-81
2021/07/12 03:41:30;;;;;;;0.93;0.93;;;12.20;99.90;;;;;;4989112;28;20222;-81
2021/07/12 03:43:57;;;;;;;0.60;0.60;;;12.30;99.90;;;;;;5001703;28;20604;-81
2021/07/12 03:46:23;;;;;;;0.70;0.70;;;12.30;99.90;;;;;;5002167;28;20551;-82
2021/07/12 03:48:48;;;;;;;0.57;0.57;;;12.40;99.90;;;;;;5002467;28;20198;-80
2021/07/12 03:51:23;;;;;;;0.98;0.98;;;12.50;99.90;;;;;;5003477;28;20204;-81
2021/07/12 03:53:49;;;;;;;0.63;0.63;;;12.50;99.90;;;;;;5000524;28;20213;-78
2021/07/12 03:56:14;;;;;;;1.15;0.90;;;12.60;99.90;;;;;;4979496;28;20201;-81
2021/07/12 03:58:40;;;;;;;0.50;0.50;;;12.60;99.90;;;;;;5002075;28;20202;-82
2021/07/12 04:01:06;;;;;;;0.60;0.60;;;12.70;99.90;;;;;;4998737;28;20195;-81
2021/07/12 04:03:31;;;;;;;1.05;0.98;;;12.80;99.90;;;;;;4998789;28;20202;-81
2021/07/12 04:05:58;;;;;;;0.80;0.80;;;12.90;99.90;;;;;;5003747;28;20198;-82
2021/07/12 04:08:24;;;;;;;0.65;0.65;;;12.90;99.90;;;;;;4988283;28;20523;-80
2021/07/12 04:10:49;;;;;;;0.77;0.75;;;13.10;99.90;;;;;;4998686;28;20203;-73
2021/07/12 04:13:15;;;;;;;0.70;0.70;;;13.50;99.90;;;;;;4999581;28;20245;-73
2021/07/12 04:15:41;;;;;;;0.98;0.98;;;14.30;99.90;;;;;;4996841;28;20222;-73
2021/07/12 04:18:08;;;;;;;0.50;0.50;;;15.20;99.90;;;;;;5005825;28;20213;-72
2021/07/12 04:20:34;;;;;;;0.93;0.93;;;15.90;99.90;;;;;;5009070;28;20301;-72
2021/07/12 04:22:59;;;;;;;0.50;0.50;;;16.60;99.90;;;;;;5004046;28;20199;-73
2021/07/12 04:25:26;;;;;;;0.40;0.40;;;17.10;99.90;;;;;;5000356;28;20233;-73
2021/07/12 04:27:51;;;;;;;0.52;0.52;;;17.50;99.90;;;;;;4997766;28;20246;-72
2021/07/12 04:30:18;;;;;;;1.38;1.27;;;17.90;99.90;;;;;;5001543;28;20211;-73
2021/07/12 04:32:44;;;;;;;0.60;0.60;;;18.20;99.90;;;;;;4996128;28;20217;-74
2021/07/12 04:35:11;;;;;;;0.85;0.60;;;18.40;99.90;;;;;;4999913;28;20665;-72
2021/07/12 04:37:37;;;;;;;0.60;0.60;;;18.60;99.90;;;;;;4988043;28;20465;-73
2021/07/12 04:40:03;;;;;;;0.63;0.63;;;18.70;99.90;;;;;;5003548;28;20210;-72
2021/07/12 04:42:30;;;;;;;0.60;0.60;;;18.90;99.90;;;;;;5005916;28;20289;-72
2021/07/12 04:44:56;;;;;;;0.35;0.35;;;19.10;99.90;;;;;;4987324;28;20203;-72
2021/07/12 04:47:23;;;;;;;0.52;0.35;;;19.10;99.90;;;;;;5002111;28;20210;-74
2021/07/12 04:49:48;;;;;;;0.82;0.75;;;19.10;99.90;;;;;;5000487;28;20218;-73
2021/07/12 04:52:14;;;;;;;1.17;0.85;;;19.30;99.90;;;;;;5000026;28;21289;-76
2021/07/12 04:54:40;;;;;;;0.43;0.43;;;19.40;99.90;;;;;;4999186;28;20254;-75
2021/07/12 04:57:06;;;;;;;0.25;0.25;;;19.50;99.90;;;;;;5016120;28;20221;-74
2021/07/12 04:59:38;;;;;;;0.68;0.52;;;19.60;99.90;;;;;;5024133;28;20212;-74
2021/07/12 05:02:08;;;;;;;0.65;0.57;;;19.80;99.90;;;;;;5024223;28;20198;-73
2021/07/12 05:04:34;;;;;;;0.70;0.70;;;19.80;99.90;;;;;;5017198;28;20198;-73
2021/07/12 05:07:00;;;;;;;0.30;0.30;;;19.90;99.90;;;;;;5023442;28;20194;-73
2021/07/12 05:09:26;;;;;;;0.70;0.50;;;19.50;99.90;;;;;;5020544;28;20215;-73
2021/07/12 05:11:53;;;;;;;0.47;0.47;;;19.60;99.90;;;;;;5029076;28;20566;-74
2021/07/12 05:14:19;;;;;;;0.40;0.40;;;19.70;99.90;;;;;;5008568;28;20214;-74
2021/07/12 05:16:45;;;;;;;0.57;0.50;;;19.70;99.90;;;;;;5021300;28;20277;-73
2021/07/12 05:19:14;;;;;;;0.50;0.43;;;19.90;99.90;;;;;;5023520;28;20708;-74
2021/07/12 05:21:40;;;;;;;0.30;0.30;;;19.90;99.90;;;;;;5038636;28;20198;-74
2021/07/12 05:24:06;;;;;;;0.35;0.35;;;19.50;99.90;;;;;;5025498;28;20234;-75
2021/07/12 05:26:32;;;;;;;0.30;0.30;;;19.10;99.90;;;;;;5027611;28;20197;-75
2021/07/12 05:28:58;;;;;;;0.55;0.55;;;19.30;99.90;;;;;;5018217;28;20202;-75
2021/07/12 05:31:23;;;;;;;0.30;0.30;;;19.70;99.90;;;;;;5025944;28;20277;-74
2021/07/12 05:33:50;;;;;;;0.32;0.32;;;20.10;99.90;;;;;;5026605;28;20201;-74
2021/07/12 05:36:16;;;;;;;0.75;0.45;;;20.40;99.90;;;;;;5020995;28;20228;-75
2021/07/12 05:38:41;;;;;;;0.40;0.40;;;20.40;99.90;;;;;;5023080;28;20205;-74
2021/07/12 05:41:08;;;;;;;0.82;0.40;;;20.60;99.90;;;;;;5024195;28;20672;-74
2021/07/12 05:43:33;;;;;;;0.40;0.40;;;20.70;99.90;;;;;;5021767;28;20570;-74
2021/07/12 05:45:59;;;;;;;0.30;0.30;;;20.90;99.90;;;;;;5021161;28;20198;-75
2021/07/12 05:48:25;;;;;;;2.40;1.23;;;20.60;99.90;;;;;;5020237;28;20783;-74
2021/07/12 05:50:51;;;;;;;0.60;0.60;;;20.30;99.90;;;;;;5019196;28;20210;-74
2021/07/12 05:53:16;;;;;;;0.43;0.40;;;20.20;99.90;;;;;;5022978;28;20484;-74
2021/07/12 05:55:43;;;;;;;0.30;0.30;;;20.30;99.90;;;;;;5018195;28;20209;-75
2021/07/12 05:58:08;;;;;;;2.35;1.25;;;20.30;99.90;;;;;;5001822;28;20230;-75
2021/07/12 06:00:34;;;;;;;0.20;0.20;;;20.60;99.90;;;;;;4997666;28;20245;-75
2021/07/12 06:03:00;;;;;;;2.70;0.40;;;20.30;99.90;;;;;;5000899;28;20977;-74
2021/07/12 06:05:25;;;;;;;0.73;0.57;;;20.40;99.90;;;;;;4999067;28;20203;-74
2021/07/12 06:07:51;;;;;;;0.30;0.30;;;20.60;99.90;;;;;;4997086;28;20199;-74
2021/07/12 06:10:17;;;;;;;0.22;0.22;;;20.40;99.90;;;;;;5000023;28;20208;-74
2021/07/12 06:12:43;;;;;;;0.43;0.43;;;20.60;99.90;;;;;;4997878;28;20209;-74
2021/07/12 06:15:09;;;;;;;0.45;0.45;;;20.60;99.90;;;;;;4983893;28;20206;-74
2021/07/12 06:17:36;;;;;;;1.20;0.70;;;21.00;99.90;;;;;;5001923;28;20203;-75
2021/07/12 06:20:03;;;;;;;0.40;0.40;;;21.10;99.90;;;;;;4995835;28;20218;-74
2021/07/12 06:22:29;;;;;;;0.40;0.40;;;21.30;99.90;;;;;;5002928;28;20280;-76
2021/07/12 06:24:54;;;;;;;0.38;0.38;;;21.30;99.90;;;;;;5000391;28;20662;-75
2021/07/12 06:27:20;;;;;;;0.30;0.30;;;21.10;99.90;;;;;;5005127;28;20217;-76
2021/07/12 06:29:46;;;;;;;0.40;0.40;;;20.90;99.90;;;;;;5006062;28;20207;-74
2021/07/12 06:32:12;;;;;;;0.40;0.40;;;20.40;99.90;;;;;;5000496;28;20252;-75
2021/07/12 06:34:37;;;;;;;2.38;0.68;;;20.30;99.90;;;;;;5001327;28;20314;-74
2021/07/12 06:37:03;;;;;;;0.40;0.40;;;20.50;99.90;;;;;;5003345;28;20209;-74
2021/07/12 06:39:29;;;;;;;3.08;0.43;;;20.70;99.90;;;;;;5004900;28;20191;-75
2021/07/12 06:41:55;;;;;;;0.43;0.43;;;20.90;99.90;;;;;;4997749;28;20204;-74
2021/07/12 06:44:20;;;;;;;0.60;0.60;;;20.60;99.90;;;;;;5003949;28;20226;-74
2021/07/12 06:46:46;;;;;;;0.20;0.20;;;20.40;99.90;;;;;;5003534;28;20276;-74
2021/07/12 06:49:12;;;;;;;0.25;0.20;;;20.30;99.90;;;;;;5000962;28;20404;-73
2021/07/12 06:51:37;;;;;;;1.20;0.77;;;20.40;99.90;;;;;;4999763;28;20623;-75
2021/07/12 06:54:03;;;;;;;0.30;0.30;;;20.50;99.90;;;;;;5001879;28;20207;-74
2021/07/12 06:56:29;;;;;;;0.30;0.30;;;20.20;99.90;;;;;;5011683;28;20224;-75
2021/07/12 06:58:54;;;;;;;0.40;0.40;;;20.20;99.90;;;;;;5024076;28;20220;-74
2021/07/12 07:01:20;;;;;;;9.60;0.70;;;20.40;99.90;;;;;;5028429;28;20735;-74
2021/07/12 07:03:46;;;;;;;0.40;0.40;;;20.70;99.90;;;;;;5024229;28;20197;-74
2021/07/12 07:06:11;;;;;;;0.40;0.40;;;20.80;99.90;;;;;;5027714;28;20193;-74
2021/07/12 07:08:41;;;;;;;0.40;0.40;;;21.20;99.90;;;;;;5027763;28;20202;-75
2021/07/12 07:11:07;;;;;;;0.85;0.55;;;21.60;99.90;;;;;;5023942;28;20199;-75
2021/07/12 07:13:32;;;;;;;0.28;0.28;;;21.90;99.90;;;;;;5022408;28;20202;-75
2021/07/12 07:15:59;;;;;;;0.75;0.52;;;22.40;99.90;;;;;;5023605;28;20210;-75
2021/07/12 07:18:24;;;;;;;0.40;0.40;;;22.60;99.90;;;;;;5026234;28;20201;-75
2021/07/12 07:20:51;;;;;;;0.30;0.30;;;22.40;99.90;;;;;;5028462;28;20220;-75
2021/07/12 07:23:16;;;;;;;0.30;0.30;;;22.80;99.90;;;;;;5028458;28;20200;-75
2021/07/12 07:25:42;;;;;;;0.22;0.22;;;23.00;99.90;;;;;;5028692;28;20194;-75
2021/07/12 07:28:08;;;;;;;0.63;0.40;;;23.10;99.90;;;;;;5039328;28;20245;-74
2021/07/12 07:30:35;;;;;;;0.40;0.40;;;23.30;99.90;;;;;;5024469;28;20539;-73
2021/07/12 07:33:01;;;;;;;0.30;0.30;;;23.80;99.90;;;;;;5030220;28;20282;-75
2021/07/12 07:35:27;;;;;;;1.60;0.50;;;23.80;99.90;;;;;;5021501;28;20206;-74
2021/07/12 07:37:53;;;;;;;0.43;0.43;;;23.30;99.90;;;;;;5020198;28;20298;-74
2021/07/12 07:40:20;;;;;;;0.20;0.20;;;22.90;99.90;;;;;;5022116;28;20213;-75
2021/07/12 07:42:46;;;;;;;0.20;0.20;;;23.00;99.90;;;;;;5024117;28;20186;-75
2021/07/12 07:45:13;;;;;;;0.20;0.20;;;23.00;99.90;;;;;;5022786;28;20194;-75
2021/07/12 07:47:40;;;;;;;0.22;0.22;;;23.20;99.90;;;;;;5023979;28;20220;-75
2021/07/12 07:50:07;;;;;;;1.00;0.38;;;23.10;99.90;;;;;;5020894;28;20202;-75
2021/07/12 07:52:33;;;;;;;0.30;0.30;;;22.80;99.90;;;;;;5022383;28;20206;-75
2021/07/12 07:54:59;;;;;;;0.65;0.35;;;23.00;99.90;;;;;;5031626;28;20252;-74
2021/07/12 07:57:24;;;;;;;0.55;0.47;;;23.20;99.90;;;;;;5006600;28;20323;-74
2021/07/12 07:59:50;;;;;;;0.43;0.43;;;23.20;99.90;;;;;;4999942;28;20211;-75
2021/07/12 08:02:16;;;;;;;0.60;0.30;;;23.30;99.90;;;;;;5006497;28;20202;-75
2021/07/12 08:04:42;;;;;;;0.20;0.20;;;23.50;99.90;;;;;;5008039;28;20317;-75
2021/07/12 08:07:09;;;;;;;0.20;0.20;;;23.70;99.90;;;;;;5007077;28;20202;-75
2021/07/12 08:09:35;;;;;;;0.63;0.25;;;23.60;99.90;;;;;;5005559;28;20232;-76
2021/07/12 08:12:01;;;;;;;0.30;0.30;;;23.30;99.90;;;;;;4990340;28;20191;-75
2021/07/12 08:14:27;;;;;;;0.13;0.13;;;22.90;99.90;;;;;;5002094;28;20203;-75
2021/07/12 08:16:52;;;;;;;0.35;0.35;;;22.60;99.90;;;;;;4991662;28;20195;-75
2021/07/12 08:19:18;;;;;;;0.20;0.20;;;22.80;99.90;;;;;;5012021;28;20596;-74
2021/07/12 08:21:44;;;;;;;0.20;0.20;;;22.80;99.90;;;;;;5008329;28;20630;-75
2021/07/12 08:24:11;;;;;;;0.20;0.20;;;22.30;99.90;;;;;;5007169;28;20574;-76
2021/07/12 08:26:37;;;;;;;0.20;0.20;;;22.00;99.90;;;;;;5012038;28;20198;-76
2021/07/12 08:29:05;;;;;;;0.45;0.45;;;21.90;99.90;;;;;;5005291;28;20203;-75
2021/07/12 08:31:31;;;;;;;0.20;0.20;;;21.80;99.90;;;;;;5010024;28;20557;-75
2021/07/12 08:33:56;;;;;;;0.45;0.45;;;21.70;99.90;;;;;;5013618;28;20214;-74
2021/07/12 08:36:23;;;;;;;0.38;0.38;;;21.70;99.90;;;;;;4998740;28;20244;-75
2021/07/12 08:38:49;;;;;;;0.20;0.20;;;21.70;99.90;;;;;;5006136;28;20906;-76
2021/07/12 08:41:15;;;;;;;0.40;0.40;;;21.90;99.90;;;;;;4987007;28;20195;-75
2021/07/12 08:43:41;;;;;;;1.27;0.50;;;22.00;99.90;;;;;;5006913;28;20199;-75
2021/07/12 08:46:08;;;;;;;0.20;0.20;;;22.10;99.90;;;;;;5010244;28;20195;-74
2021/07/12 08:48:34;;;;;;;0.65;0.50;;;22.30;99.90;;;;;;5008412;28;20206;-75
2021/07/12 08:51:00;;;;;;;0.77;0.77;;;22.40;99.90;;;;;;5001335;28;20669;-75
2021/07/12 08:53:26;;;;;;;0.30;0.30;;;22.50;99.90;;;;;;5007299;28;20202;-75
2021/07/12 08:55:51;;;;;;;0.20;0.20;;;22.70;99.90;;;;;;5007645;28;20213;-74
2021/07/12 08:58:22;;;;;;;0.20;0.20;;;22.40;99.90;;;;;;5023703;28;20320;-75
2021/07/12 09:00:57;;;;;;;0.25;0.25;;;22.40;99.90;;;;;;5022866;28;20275;-75
2021/07/12 09:03:24;;;;;;;0.20;0.20;;;22.50;99.90;;;;;;5024857;28;20225;-75
2021/07/12 09:06:05;;;;;;;0.20;0.20;;;22.90;99.90;;;;;;5044416;28;20739;-75
2021/07/12 09:08:39;;;;;;;0.32;0.32;;;23.10;99.90;;;;;;5043165;28;20198;-76
2021/07/12 09:11:31;;;;;;;0.30;0.30;;;23.10;99.90;;;;;;5022731;28;20197;-75
2021/07/12 09:14:07;;;;;;;0.28;0.25;;;23.50;99.90;;;;;;5017506;28;20264;-75
2021/07/12 09:16:34;;;;;;;0.20;0.20;;;23.30;99.90;;;;;;5027636;28;20194;-75
2021/07/12 09:19:12;;;;;;;0.20;0.20;;;23.40;99.90;;;;;;5023050;28;20896;-75
2021/07/12 09:21:56;;;;;;;0.20;0.20;;;23.90;99.90;;;;;;5021416;28;20216;-76
2021/07/12 09:24:27;;;;;;;0.20;0.20;;;24.10;99.90;;;;;;5038256;28;20279;-75
2021/07/12 09:26:56;;;;;;;0.65;0.40;;;24.20;99.90;;;;;;5021408;28;20194;-75
2021/07/12 09:29:40;;;;;;;0.25;0.25;;;24.40;99.90;;;;;;5031142;28;20206;-76
2021/07/12 09:32:09;;;;;;;0.20;0.20;;;24.90;99.90;;;;;;5028271;28;20234;-75
2021/07/12 09:34:35;;;;;;;0.20;0.20;;;25.30;99.90;;;;;;5029178;28;20252;-76
2021/07/12 09:37:02;;;;;;;0.10;0.10;;;25.30;99.90;;;;;;5029549;28;20700;-75
2021/07/12 09:39:32;;;;;;;0.30;0.20;;;25.20;99.90;;;;;;5023770;28;20232;-76
2021/07/12 09:42:22;;;;;;;0.30;0.30;;;25.20;99.90;;;;;;5027475;28;20856;-75
2021/07/12 09:44:50;;;;;;;0.30;0.30;;;25.40;99.90;;;;;;5024002;28;20196;-76
2021/07/12 09:47:19;;;;;;;0.50;0.30;;;24.80;99.90;;;;;;5024923;28;20573;-75
2021/07/12 09:49:46;;;;;;;4.05;0.63;;;24.90;99.90;;;;;;5022981;28;20198;-76
2021/07/12 09:52:14;;;;;;;0.20;0.20;;;24.50;99.90;;;;;;5024559;28;20221;-76
2021/07/12 09:54:41;;;;;;;0.25;0.22;;;24.40;99.90;;;;;;5022896;28;20240;-76
2021/07/12 09:57:10;;;;;;;0.25;0.25;;;24.20;99.90;;;;;;5017257;28;20238;-76
2021/07/12 09:59:51;;;;;;;0.25;0.25;;;24.40;99.90;;;;;;4998862;28;20261;-76
2021/07/12 10:02:19;;;;;;;0.63;0.50;;;24.50;99.90;;;;;;5000517;28;20191;-76
2021/07/12 10:04:45;;;;;;;0.20;0.20;;;24.20;99.90;;;;;;5000498;28;20617;-75
2021/07/12 10:07:11;;;;;;;0.20;0.20;;;24.40;99.90;;;;;;5005663;28;20274;-76
2021/07/12 10:09:38;;;;;;;0.30;0.30;;;24.50;99.90;;;;;;5002853;28;20218;-77
2021/07/12 10:12:05;;;;;;;0.20;0.20;;;24.80;99.90;;;;;;5007654;28;20214;-76
2021/07/12 10:14:31;;;;;;;0.40;0.40;;;24.90;99.90;;;;;;4984000;28;20217;-75
2021/07/12 10:16:57;;;;;;;0.40;0.40;;;25.00;99.90;;;;;;4973196;28;20199;-75
2021/07/12 10:19:22;;;;;;;0.20;0.20;;;25.20;99.90;;;;;;4992896;28;20207;-76
2021/07/12 10:21:52;;;;;;;0.20;0.20;;;25.60;99.90;;;;;;5005777;28;20209;-75
2021/07/12 10:24:27;;;;;;;0.32;0.32;;;25.90;99.90;;;;;;5008432;28;20206;-76
2021/07/12 10:26:55;;;;;;;0.20;0.20;;;25.90;99.90;;;;;;5003567;28;20197;-75
2021/07/12 10:29:37;;;;;;;0.65;0.32;;;25.40;99.90;;;;;;5008426;28;20611;-77
2021/07/12 10:32:16;;;;;;;28.27;0.88;;;25.60;99.90;;;;;;5001329;28;20203;-76
2021/07/12 10:34:42;;;;;;;1.30;1.00;;;25.90;99.90;;;;;;5003459;28;20546;-76
2021/07/12 10:37:19;;;;;;;0.20;0.20;;;25.80;99.90;;;;;;5004553;28;20198;-75
2021/07/12 10:40:14;;;;;;;0.10;0.10;;;26.00;99.90;;;;;;5002052;28;20268;-76
2021/07/12 10:42:42;;;;;;;0.20;0.20;;;25.80;99.90;;;;;;5004692;28;20206;-76
2021/07/12 10:45:39;;;;;;;0.25;0.25;;;25.40;99.90;;;;;;4989799;28;20252;-76
2021/07/12 10:48:10;;;;;;;0.22;0.22;;;25.40;99.90;;;;;;4992759;28;20256;-76
2021/07/12 10:50:50;;;;;;;0.77;0.25;;;25.30;99.90;;;;;;5002195;28;20592;-75
2021/07/12 10:53:22;;;;;;;0.20;0.20;;;25.00;99.90;;;;;;5007747;28;20198;-76
2021/07/12 10:56:11;;;;;;;0.30;0.30;;;24.90;99.90;;;;;;5002709;28;20199;-76
2021/07/12 10:58:37;;;;;;;0.93;0.32;;;24.60;99.90;;;;;;4988012;28;20583;-76
2021/07/12 11:01:05;;;;;;;0.20;0.20;;;24.20;99.90;;;;;;5005737;28;20300;-75
2021/07/12 11:03:39;;;;;;;0.17;0.17;;;24.00;99.90;;;;;;4965141;28;20757;-76
2021/07/12 11:06:22;;;;;;;0.20;0.20;;;24.50;99.90;;;;;;5001473;28;20234;-75
2021/07/12 11:08:52;;;;;;;0.10;0.10;;;24.60;99.90;;;;;;4999241;28;20605;-76
2021/07/12 11:11:20;;;;;;;0.40;0.40;;;24.80;99.90;;;;;;5001578;28;20396;-76
2021/07/12 11:13:54;;;;;;;0.20;0.20;;;25.10;99.90;;;;;;4982813;28;20219;-75
2021/07/12 11:16:22;;;;;;;0.35;0.35;;;24.50;99.90;;;;;;4993998;28;20203;-77
2021/07/12 11:18:48;;;;;;;0.25;0.25;;;24.00;99.90;;;;;;5001706;28;20199;-76
2021/07/12 11:21:15;;;;;;;0.77;0.75;;;23.80;99.90;;;;;;5002736;28;20199;-76
2021/07/12 11:23:46;;;;;;;0.10;0.10;;;23.90;99.90;;;;;;4983086;28;20773;-76
2021/07/12 11:26:27;;;;;;;0.45;0.28;;;23.70;99.90;;;;;;5002841;28;20372;-75
2021/07/12 11:29:01;;;;;;;0.20;0.20;;;24.10;99.90;;;;;;4996686;28;20208;-76
2021/07/12 11:32:06;;;;;;;0.30;0.30;;;24.00;99.90;;;;;;5002836;28;20241;-75
2021/07/12 11:34:37;;;;;;;0.85;0.45;;;23.60;99.90;;;;;;4994817;28;20285;-75
2021/07/12 11:37:11;;;;;;;0.20;0.20;;;23.80;99.90;;;;;;4997384;28;20278;-74
2021/07/12 11:39:43;;;;;;;0.30;0.30;;;24.40;99.90;;;;;;4999109;28;20207;-75
2021/07/12 11:42:19;;;;;;;0.25;0.25;;;25.20;99.90;;;;;;4997940;28;20212;-76
2021/07/12 11:44:55;;;;;;;0.15;0.15;;;26.00;99.90;;;;;;4998081;28;20218;-75
2021/07/12 11:47:44;;;;;;;0.30;0.30;;;26.50;99.90;;;;;;5002161;28;20652;-80
2021/07/12 11:50:14;;;;;;;0.10;0.10;;;26.40;99.90;;;;;;4987971;28;20228;-80
2021/07/12 11:52:53;;;;;;;0.65;0.45;;;25.70;99.90;;;;;;5001671;28;20229;-79
2021/07/12 11:55:29;;;;;;;0.20;0.20;;;25.10;99.90;;;;;;4983416;28;20723;-80
2021/07/12 11:57:57;;;;;;;0.20;0.20;;;24.70;99.90;;;;;;5025309;28;20229;-80
2021/07/12 12:00:26;;;;;;;0.20;0.20;;;24.50;99.90;;;;;;5036615;28;20599;-80
2021/07/12 12:03:01;;;;;;;0.30;0.30;;;24.60;99.90;;;;;;5019494;28;20226;-79
2021/07/12 12:05:29;;;;;;;0.63;0.20;;;24.70;99.90;;;;;;5021118;28;20198;-80
2021/07/12 12:07:58;;;;;;;0.22;0.22;;;24.90;99.90;;;;;;5039217;28;20552;-79
2021/07/12 12:10:30;;;;;;;0.38;0.30;;;24.80;99.90;;;;;;5015854;28;20209;-80
2021/07/12 12:13:01;;;;;;;1.30;0.70;;;24.60;99.90;;;;;;5018951;28;20194;-80
2021/07/12 12:15:30;;;;;;;1.10;0.63;;;25.10;99.90;;;;;;5025880;28;20280;-80
2021/07/12 12:17:57;;;;;;;0.15;0.15;;;25.40;99.90;;;;;;5038744;28;20286;-81
2021/07/12 12:20:29;;;;;;;0.10;0.10;;;25.70;99.90;;;;;;5020680;28;20301;-81
2021/07/12 12:23:07;;;;;;;0.40;0.40;;;26.20;99.90;;;;;;5017242;28;20213;-80
2021/07/12 12:25:42;;;;;;;0.40;0.40;;;26.50;99.90;;;;;;5036195;28;20672;-80
2021/07/12 12:28:08;;;;;;;0.15;0.15;;;27.10;99.90;;;;;;5028159;28;20192;-80
2021/07/12 12:30:35;;;;;;;0.20;0.20;;;27.40;99.90;;;;;;5023202;28;20320;-80
2021/07/12 12:33:02;;;;;;;0.30;0.30;;;27.30;99.90;;;;;;5046454;28;20233;-80
2021/07/12 12:35:30;;;;;;;0.17;0.17;;;27.20;99.90;;;;;;5024139;28;20198;-80
2021/07/12 12:38:18;;;;;;;0.25;0.22;;;27.60;99.90;;;;;;5041218;28;20747;-80
2021/07/12 12:40:44;;;;;;;0.10;0.10;;;28.20;99.90;;;;;;5022333;28;20237;-80
2021/07/12 12:43:17;;;;;;;0.38;0.38;;;28.00;99.90;;;;;;5022935;28;20205;-77
2021/07/12 12:46:04;;;;;;;0.20;0.20;;;27.90;99.90;;;;;;5023167;28;20193;-77
2021/07/12 12:48:30;;;;;;;0.22;0.22;;;28.00;99.90;;;;;;5023117;28;20193;-77
2021/07/12 12:50:56;;;;;;;0.10;0.10;;;28.50;99.90;;;;;;5019191;28;20193;-77
2021/07/12 12:53:30;;;;;;;0.63;0.47;;;28.50;99.80;;;;;;5047970;28;20201;-76
2021/07/12 12:55:55;;;;;;;0.10;0.10;;;28.50;97.20;;;;;;5022925;28;20197;-77
2021/07/12 12:58:26;;;;;;;0.45;0.45;;;27.30;98.80;;;;;;5005444;28;20288;-76